Messwerte Sarasota / Bradenton

Temperatur

Temperatur
°C
1568790000 3.00 3.00 26
1568793600 4.00 4.00 25
1568797200 5.00 5.00 24
1568800800 6.00 6.00 24
1568804400 7.00 7.00 24
1568808000 8.00 8.00 24
1568811600 9.00 9.00 28
1568815200 10.00 10.00 29
1568818800 11.00 11.00 31
1568822400 12.00 12.00 32
1568826000 13.00 13.00 33
1568829600 14.00 14.00 35
1568833200 15.00 15.00 35
1568836800 16.00 16.00 33
1568840400 17.00 17.00 34
1568844000 18.00 18.00 32
1568847600 19.00 19.00 32
1568851200 20.00 20.00
1568854800 21.00 21.00 25
1568858400 22.00 22.00 26
1568862000 23.00 23.00 26
1568865600 0.00 0.00 26
1568869200 1.00 1.00 26
1568872800 2.00 2.00 26

Aktuellste Messwerte

Wettercharakter
Wetter: klar
Temperatur
26 °C
Feuchtigkeit
85 %
Wind
10 km/hWindrichtung: Nordost
Luftdruck
1014 hPa
Messzeit: 19. September 2019, 3.00Datenquelle: METAR

Weitere Messstationen in der Nähe

Messstation Temperatur Entfernung
St. Petersburg 27 °C 41 km
MacDill 25 °C 50 km
St. Petersburg / Clearwater 26 °C 58 km
Tampa - 59 km
Tampa 25 °C 63 km
Tampa 23 °C 71 km
Plant City 24 °C 77 km

Wind

Windrichtung Böen Mittelwind
° km/h km/h
1568790000 3.00 2.00 - 3.00 60° 5
1568793600 4.00 3.00 - 4.00 90° 5
1568797200 5.00 4.00 - 5.00 0
1568800800 6.00 5.00 - 6.00 0
1568804400 7.00 6.00 - 7.00 40° 5
1568808000 8.00 7.00 - 8.00 20° 5
1568811600 9.00 8.00 - 9.00 40° 5
1568815200 10.00 9.00 - 10.00 50° 15
1568818800 11.00 10.00 - 11.00 10
1568822400 12.00 11.00 - 12.00 110° 10
1568826000 13.00 12.00 - 13.00 10
1568829600 14.00 13.00 - 14.00 50° 15
1568833200 15.00 14.00 - 15.00
1568836800 16.00 15.00 - 16.00 300° 15
1568840400 17.00 16.00 - 17.00 5
1568844000 18.00 17.00 - 18.00 30° 5
1568847600 19.00 18.00 - 19.00 10
1568851200 20.00 19.00 - 20.00
1568854800 21.00 20.00 - 21.00 80° 45 20
1568858400 22.00 21.00 - 22.00 120° 5
1568862000 23.00 22.00 - 23.00 80° 5
1568865600 0.00 23.00 - 0.00 40° 5
1568869200 1.00 0.00 - 1.00 80° 15
1568872800 2.00 1.00 - 2.00 60° 15

Ihre Wetterstation

Fehlt Ihre Wetterstation auf unserem Portal?

Schreiben Sie an network@meteonews.ch

Klima

Wann ist es am wärmsten? Wann regnet es am wenigsten? Unsere Klimadaten geben Auskunft.